Time;durP1;ratioP1;P1;durP2;ratioP2;P2;SDS_P1;SDS_P2;PMS_P1;PMS_P2;Temp;Humidity;BMP_temperature;BMP_pressure;BME280_temperature;BME280_humidity;BME280_pressure;Samples;Min_cycle;Max_cycle;Signal;HPM_P1;HPM_P2
2024/01/01 00:00:34;;;;;;;23.90;10.82;;;9.10;99.90;;;;;;5006287;28;20118;-59
2024/01/01 00:02:59;;;;;;;21.13;9.88;;;9.00;99.90;;;;;;5005727;28;20117;-60
2024/01/01 00:05:25;;;;;;;15.95;9.18;;;9.10;99.90;;;;;;5003982;28;20038;-60
2024/01/01 00:07:51;;;;;;;19.65;10.57;;;9.10;99.90;;;;;;4985132;28;20034;-60
2024/01/01 00:10:18;;;;;;;28.25;16.25;;;9.10;99.90;;;;;;4999493;28;20075;-59
2024/01/01 00:12:43;;;;;;;22.27;7.55;;;9.20;99.90;;;;;;5006067;28;20068;-59
2024/01/01 00:15:09;;;;;;;18.10;6.72;;;9.20;99.90;;;;;;5007801;28;20030;-61
2024/01/01 00:17:34;;;;;;;16.45;6.05;;;9.20;99.90;;;;;;5009677;28;20033;-59
2024/01/01 00:20:00;;;;;;;25.00;8.52;;;9.20;99.90;;;;;;5008089;28;20064;-60
2024/01/01 00:22:26;;;;;;;20.55;7.43;;;9.20;99.90;;;;;;5005222;28;20104;-60
2024/01/01 00:24:51;;;;;;;19.98;12.73;;;9.20;99.90;;;;;;5002877;28;20034;-61
2024/01/01 00:27:17;;;;;;;19.58;8.02;;;9.20;99.90;;;;;;5001708;28;20109;-60
2024/01/01 00:29:42;;;;;;;18.45;5.05;;;9.10;99.90;;;;;;5009146;28;20030;-56
2024/01/01 00:32:08;;;;;;;13.82;8.73;;;9.10;99.90;;;;;;5006201;28;20026;-60
2024/01/01 00:34:33;;;;;;;17.83;7.30;;;9.20;99.90;;;;;;5003509;28;20034;-60
2024/01/01 00:36:59;;;;;;;10.65;4.28;;;9.10;99.90;;;;;;5001775;28;20026;-58
2024/01/01 00:39:24;;;;;;;13.40;3.50;;;9.20;99.90;;;;;;5003897;28;20397;-56
2024/01/01 00:41:50;;;;;;;11.85;4.82;;;9.20;99.90;;;;;;5009148;28;20506;-57
2024/01/01 00:44:15;;;;;;;21.40;6.15;;;9.10;99.90;;;;;;5001587;28;20034;-57
2024/01/01 00:46:41;;;;;;;12.57;2.50;;;9.20;99.90;;;;;;5003809;28;20026;-58
2024/01/01 00:49:07;;;;;;;31.17;17.52;;;9.10;99.90;;;;;;5001630;28;20022;-59
2024/01/01 00:51:32;;;;;;;19.13;5.82;;;9.00;99.90;;;;;;5005700;28;20110;-59
2024/01/01 00:53:58;;;;;;;46.83;10.07;;;9.10;99.90;;;;;;5007512;28;20025;-58
2024/01/01 00:56:23;;;;;;;15.82;3.42;;;9.00;99.90;;;;;;5005428;28;20049;-59
2024/01/01 00:58:49;;;;;;;19.08;3.65;;;9.00;99.90;;;;;;5008047;28;20044;-57
2024/01/01 01:01:15;;;;;;;10.93;3.00;;;9.00;99.90;;;;;;5008164;28;20030;-58
2024/01/01 01:03:40;;;;;;;10.13;2.35;;;8.90;99.90;;;;;;5009428;28;20030;-60
2024/01/01 01:06:06;;;;;;;13.32;2.30;;;8.90;99.90;;;;;;5008890;28;20488;-57
2024/01/01 01:08:31;;;;;;;13.77;2.47;;;9.00;99.90;;;;;;5008688;28;20030;-57
2024/01/01 01:10:57;;;;;;;23.48;2.72;;;9.00;99.90;;;;;;5007101;28;20052;-57
2024/01/01 01:13:22;;;;;;;10.10;2.03;;;9.10;99.90;;;;;;5004490;28;20026;-57
2024/01/01 01:15:49;;;;;;;13.25;2.38;;;9.10;99.90;;;;;;5010027;28;20022;-58
2024/01/01 01:18:15;;;;;;;10.65;1.90;;;9.10;99.90;;;;;;5007805;28;20023;-59
2024/01/01 01:20:41;;;;;;;7.43;1.55;;;9.10;99.90;;;;;;5008922;28;20109;-58
2024/01/01 01:23:06;;;;;;;13.38;2.67;;;9.10;99.90;;;;;;5007177;28;20049;-60
2024/01/01 01:25:32;;;;;;;11.82;2.00;;;9.10;99.90;;;;;;5009595;28;20034;-60
2024/01/01 01:27:58;;;;;;;7.20;2.10;;;9.20;99.90;;;;;;5008498;28;20030;-58
2024/01/01 01:30:23;;;;;;;9.55;2.33;;;9.20;99.90;;;;;;5010453;28;21886;-59
2024/01/01 01:32:49;;;;;;;11.77;2.20;;;9.20;99.90;;;;;;5011139;28;20032;-58
2024/01/01 01:35:15;;;;;;;14.93;2.30;;;9.20;99.90;;;;;;5007770;28;20515;-57
2024/01/01 01:37:40;;;;;;;14.10;1.80;;;9.20;99.90;;;;;;5009267;28;20097;-56
2024/01/01 01:40:07;;;;;;;15.30;2.30;;;9.20;99.90;;;;;;5006370;28;20033;-58
2024/01/01 01:42:32;;;;;;;7.97;2.25;;;9.40;99.90;;;;;;5008569;28;20148;-56
2024/01/01 01:44:58;;;;;;;9.70;2.63;;;9.50;99.90;;;;;;5009925;28;20101;-59
2024/01/01 01:47:24;;;;;;;19.23;2.72;;;9.40;99.90;;;;;;5007428;28;20029;-58
2024/01/01 01:49:51;;;;;;;15.15;2.42;;;9.40;99.90;;;;;;4988396;28;20396;-60
2024/01/01 01:52:17;;;;;;;16.15;1.98;;;9.30;99.90;;;;;;5009527;28;20033;-57
2024/01/01 01:54:45;;;;;;;17.80;2.17;;;9.30;99.90;;;;;;5009250;28;20034;-59
2024/01/01 01:57:13;;;;;;;7.60;1.77;;;9.30;99.90;;;;;;5005676;28;20380;-56
2024/01/01 01:59:42;;;;;;;10.02;1.90;;;9.20;99.90;;;;;;5005145;28;20057;-57
2024/01/01 02:02:08;;;;;;;11.60;2.00;;;9.30;99.90;;;;;;5004618;28;20487;-58
2024/01/01 02:04:33;;;;;;;13.65;1.80;;;9.30;99.90;;;;;;5009218;28;20072;-59
2024/01/01 02:06:59;;;;;;;14.85;2.15;;;9.30;99.90;;;;;;5009093;28;20030;-58
2024/01/01 02:09:24;;;;;;;17.33;2.15;;;9.30;99.90;;;;;;5003911;28;20014;-58
2024/01/01 02:11:50;;;;;;;10.40;2.00;;;9.30;99.90;;;;;;5006759;28;20054;-58
2024/01/01 02:14:16;;;;;;;18.58;2.40;;;9.30;99.90;;;;;;4985448;28;20118;-60
2024/01/01 02:16:44;;;;;;;15.43;1.70;;;9.30;99.90;;;;;;5003296;28;20034;-61
2024/01/01 02:19:22;;;;;;;18.05;2.30;;;9.30;99.90;;;;;;5004703;28;20034;-59
2024/01/01 02:21:50;;;;;;;17.88;2.35;;;9.30;99.90;;;;;;5001070;28;20109;-59
2024/01/01 02:24:16;;;;;;;14.50;2.20;;;9.30;99.90;;;;;;5008580;28;20496;-59
2024/01/01 02:26:43;;;;;;;16.25;2.50;;;9.30;99.90;;;;;;5009524;28;20041;-58
2024/01/01 02:29:09;;;;;;;13.10;2.13;;;9.20;99.90;;;;;;5006773;28;20017;-56
2024/01/01 02:31:34;;;;;;;13.85;1.95;;;9.10;99.90;;;;;;5005093;28;20026;-59
2024/01/01 02:34:00;;;;;;;22.52;2.72;;;9.00;99.90;;;;;;5006074;28;20057;-60
2024/01/01 02:36:25;;;;;;;12.50;1.73;;;8.90;99.90;;;;;;5007675;28;20040;-57
2024/01/01 02:38:51;;;;;;;11.15;2.22;;;8.70;99.90;;;;;;5008752;28;20075;-59
2024/01/01 02:41:16;;;;;;;10.00;1.98;;;8.70;99.90;;;;;;5003610;28;20087;-59
2024/01/01 02:43:42;;;;;;;21.48;2.58;;;8.60;99.90;;;;;;5004140;28;20030;-58
2024/01/01 02:46:07;;;;;;;19.67;2.83;;;8.50;99.90;;;;;;5012166;28;20073;-59
2024/01/01 02:48:33;;;;;;;13.85;1.90;;;8.60;99.90;;;;;;5011265;28;20025;-60
2024/01/01 02:50:58;;;;;;;21.58;2.85;;;8.60;99.90;;;;;;5007527;28;20026;-58
2024/01/01 02:53:24;;;;;;;12.63;2.13;;;8.60;99.90;;;;;;5006725;28;20034;-59
2024/01/01 02:55:49;;;;;;;14.23;2.42;;;8.70;99.90;;;;;;5002668;28;20037;-58
2024/01/01 02:58:15;;;;;;;20.70;2.83;;;8.60;99.90;;;;;;5005942;28;20046;-59
2024/01/01 03:00:41;;;;;;;15.57;2.55;;;8.60;99.90;;;;;;5004695;28;20049;-59
2024/01/01 03:03:06;;;;;;;12.93;2.13;;;8.60;99.90;;;;;;5003896;28;20039;-55
2024/01/01 03:05:32;;;;;;;26.88;2.60;;;8.60;99.90;;;;;;5006750;28;20018;-60
2024/01/01 03:07:57;;;;;;;12.00;2.38;;;8.50;99.90;;;;;;5002227;28;20093;-62
2024/01/01 03:10:23;;;;;;;19.50;2.05;;;8.50;99.90;;;;;;5001322;28;20026;-57
2024/01/01 03:12:48;;;;;;;21.42;2.33;;;8.50;99.90;;;;;;4986189;28;20057;-57
2024/01/01 03:15:14;;;;;;;16.48;2.60;;;8.50;99.90;;;;;;5002341;28;20444;-62
2024/01/01 03:17:41;;;;;;;8.95;1.90;;;8.50;99.90;;;;;;5004066;28;20454;-58
2024/01/01 03:20:07;;;;;;;14.40;1.73;;;8.60;99.90;;;;;;5003419;28;20048;-61
2024/01/01 03:22:32;;;;;;;10.85;2.35;;;8.50;99.90;;;;;;5006039;28;20027;-61
2024/01/01 03:24:58;;;;;;;15.52;2.05;;;8.50;99.90;;;;;;5004595;28;20029;-60
2024/01/01 03:27:23;;;;;;;15.48;2.58;;;8.50;99.90;;;;;;5005851;28;20117;-59
2024/01/01 03:29:49;;;;;;;18.05;2.67;;;8.60;99.90;;;;;;5008188;28;20029;-61
2024/01/01 03:32:15;;;;;;;14.68;2.53;;;8.60;99.90;;;;;;5003873;28;20037;-60
2024/01/01 03:34:41;;;;;;;15.80;2.85;;;8.70;99.90;;;;;;5005384;28;20041;-56
2024/01/01 03:37:07;;;;;;;15.68;2.03;;;8.70;99.90;;;;;;5002942;28;20109;-61
2024/01/01 03:39:33;;;;;;;22.88;2.42;;;8.70;99.90;;;;;;5010907;28;20061;-59
2024/01/01 03:41:58;;;;;;;14.23;2.55;;;8.80;99.90;;;;;;5008634;28;20091;-60
2024/01/01 03:44:24;;;;;;;21.75;3.03;;;8.80;99.90;;;;;;5003216;28;20505;-61
2024/01/01 03:46:49;;;;;;;22.08;2.58;;;8.70;99.90;;;;;;5006246;28;20038;-61
2024/01/01 03:49:15;;;;;;;22.98;3.15;;;8.80;99.90;;;;;;5005991;28;20636;-59
2024/01/01 03:51:40;;;;;;;17.52;3.33;;;9.00;99.90;;;;;;5010235;28;20029;-60
2024/01/01 03:54:06;;;;;;;18.63;2.22;;;8.90;99.90;;;;;;5010556;28;20488;-61
2024/01/01 03:56:31;;;;;;;17.98;2.58;;;9.00;99.90;;;;;;5002218;28;20110;-59
2024/01/01 03:58:57;;;;;;;26.70;2.70;;;9.00;99.90;;;;;;5004962;28;20025;-60
2024/01/01 04:01:23;;;;;;;18.15;3.00;;;9.00;99.90;;;;;;5001470;28;20034;-61
2024/01/01 04:03:48;;;;;;;16.00;2.42;;;9.10;99.90;;;;;;5002967;28;20041;-57
2024/01/01 04:06:14;;;;;;;14.73;1.75;;;9.10;99.90;;;;;;5003868;28;20036;-58
2024/01/01 04:08:39;;;;;;;13.65;2.50;;;9.10;99.90;;;;;;5007067;28;20440;-59
2024/01/01 04:11:05;;;;;;;16.95;3.15;;;9.10;99.90;;;;;;4999386;28;20511;-61
2024/01/01 04:13:30;;;;;;;25.33;2.78;;;9.10;99.90;;;;;;5004580;28;20062;-59
2024/01/01 04:15:56;;;;;;;16.55;2.60;;;9.10;99.90;;;;;;5000985;28;20109;-60
2024/01/01 04:18:22;;;;;;;18.73;2.28;;;9.10;99.90;;;;;;5006370;28;20424;-60
2024/01/01 04:20:48;;;;;;;13.77;2.85;;;9.10;99.90;;;;;;5003605;28;20030;-61
2024/01/01 04:23:13;;;;;;;15.90;2.53;;;9.10;99.90;;;;;;5007656;28;20451;-56
2024/01/01 04:25:39;;;;;;;19.70;3.22;;;9.10;99.90;;;;;;4997881;28;20401;-59
2024/01/01 04:28:05;;;;;;;21.92;2.78;;;9.10;99.90;;;;;;5007928;28;20038;-59
2024/01/01 04:30:30;;;;;;;26.83;2.97;;;9.20;99.90;;;;;;5001072;28;20032;-57
2024/01/01 04:32:56;;;;;;;14.95;2.22;;;9.20;99.90;;;;;;5008240;28;20116;-58
2024/01/01 04:35:21;;;;;;;11.65;2.53;;;9.20;99.90;;;;;;5001626;28;20026;-59
2024/01/01 04:37:47;;;;;;;24.25;2.58;;;9.20;99.90;;;;;;5016784;28;20032;-61
2024/01/01 04:40:13;;;;;;;24.70;3.80;;;9.20;99.90;;;;;;5023744;28;20486;-62
2024/01/01 04:42:38;;;;;;;17.98;2.65;;;9.10;99.90;;;;;;5019193;28;20031;-57
2024/01/01 04:45:04;;;;;;;25.20;3.25;;;9.20;99.90;;;;;;5021759;28;20022;-59
2024/01/01 04:47:29;;;;;;;15.65;2.45;;;9.20;99.90;;;;;;5015377;28;20514;-59
2024/01/01 04:49:55;;;;;;;13.90;3.33;;;9.20;99.90;;;;;;5008698;28;20022;-60
2024/01/01 04:52:20;;;;;;;22.60;3.03;;;9.20;99.90;;;;;;5002376;28;20097;-59
2024/01/01 04:54:46;;;;;;;19.38;2.33;;;9.20;99.90;;;;;;5007604;28;20060;-58
2024/01/01 04:57:11;;;;;;;14.50;2.05;;;9.20;99.90;;;;;;5009174;28;20748;-61
2024/01/01 04:59:38;;;;;;;23.88;2.72;;;9.20;99.90;;;;;;5003919;28;20049;-59
2024/01/01 05:02:03;;;;;;;23.20;2.70;;;9.20;99.90;;;;;;5004725;28;20034;-60
2024/01/01 05:04:29;;;;;;;19.52;3.17;;;9.20;99.90;;;;;;5010318;28;20158;-57
2024/01/01 05:06:54;;;;;;;17.63;2.40;;;9.20;99.90;;;;;;5008537;28;20117;-59
2024/01/01 05:09:20;;;;;;;21.40;2.78;;;9.20;99.90;;;;;;5007190;28;20041;-59
2024/01/01 05:11:45;;;;;;;28.23;3.20;;;9.30;99.90;;;;;;5013215;28;20022;-58
2024/01/01 05:14:11;;;;;;;17.50;3.30;;;9.30;99.90;;;;;;5007194;28;20494;-57
2024/01/01 05:16:37;;;;;;;16.33;2.83;;;9.30;99.90;;;;;;5005027;28;20045;-60
2024/01/01 05:19:03;;;;;;;16.63;2.63;;;9.30;99.90;;;;;;5006884;28;20041;-58
2024/01/01 05:21:28;;;;;;;21.33;2.88;;;9.30;99.90;;;;;;5005723;28;21222;-58
2024/01/01 05:23:54;;;;;;;23.27;2.58;;;9.20;99.90;;;;;;5007068;28;20037;-58
2024/01/01 05:26:20;;;;;;;17.88;2.70;;;9.10;99.90;;;;;;5005801;28;20041;-61
2024/01/01 05:28:45;;;;;;;22.63;2.60;;;9.20;99.90;;;;;;5009905;28;20033;-61
2024/01/01 05:31:10;;;;;;;15.98;3.10;;;9.20;99.90;;;;;;5000307;28;20064;-59
2024/01/01 05:33:36;;;;;;;23.92;2.78;;;9.20;99.90;;;;;;5006031;28;20460;-62
2024/01/01 05:36:10;;;;;;;35.10;3.60;;;9.20;99.90;;;;;;5003998;28;20055;-58
2024/01/01 05:38:36;;;;;;;15.18;2.65;;;9.20;99.90;;;;;;5010484;28;20053;-60
2024/01/01 05:41:01;;;;;;;27.85;3.20;;;9.10;99.90;;;;;;5007202;28;20054;-60
2024/01/01 05:43:27;;;;;;;27.55;2.45;;;9.10;99.90;;;;;;5007086;28;20510;-59
2024/01/01 05:45:52;;;;;;;25.75;3.08;;;9.10;99.90;;;;;;5004429;28;20042;-61
2024/01/01 05:48:18;;;;;;;17.33;2.80;;;9.10;99.90;;;;;;5005929;28;20017;-57
2024/01/01 05:50:43;;;;;;;32.70;3.47;;;9.10;99.90;;;;;;5004255;28;20461;-60
2024/01/01 05:53:09;;;;;;;28.98;3.10;;;9.10;99.90;;;;;;5007691;28;20033;-61
2024/01/01 05:55:34;;;;;;;19.15;2.60;;;9.10;99.90;;;;;;5008306;28;20034;-59
2024/01/01 05:58:00;;;;;;;25.90;3.42;;;9.20;99.90;;;;;;5010768;28;20072;-61
2024/01/01 06:00:26;;;;;;;18.60;2.38;;;9.20;99.90;;;;;;5006585;28;20056;-62
2024/01/01 06:02:51;;;;;;;20.63;3.22;;;9.20;99.90;;;;;;5010293;28;20400;-60
2024/01/01 06:05:17;;;;;;;25.63;3.25;;;9.20;99.90;;;;;;5003906;28;20027;-59
2024/01/01 06:07:43;;;;;;;22.10;2.90;;;9.30;99.90;;;;;;5006953;28;20022;-59
2024/01/01 06:10:09;;;;;;;19.88;2.95;;;9.30;99.90;;;;;;4989941;28;20435;-60
2024/01/01 06:12:34;;;;;;;23.23;2.35;;;9.30;99.90;;;;;;5010252;28;20026;-60
2024/01/01 06:14:59;;;;;;;22.67;3.47;;;9.20;99.90;;;;;;5011288;28;20053;-60
2024/01/01 06:17:25;;;;;;;16.67;2.70;;;9.20;99.90;;;;;;5001071;28;20071;-60
2024/01/01 06:19:50;;;;;;;21.05;2.88;;;9.20;99.90;;;;;;5005355;28;20022;-60
2024/01/01 06:22:16;;;;;;;14.95;2.30;;;9.20;99.90;;;;;;5007724;28;20032;-59
2024/01/01 06:24:42;;;;;;;21.40;3.22;;;9.20;99.90;;;;;;5008581;28;20703;-59
2024/01/01 06:27:07;;;;;;;24.05;3.25;;;9.20;99.90;;;;;;5006291;28;20101;-59
2024/01/01 06:29:33;;;;;;;23.55;3.08;;;9.20;99.90;;;;;;5007664;28;20026;-61
2024/01/01 06:31:58;;;;;;;19.38;2.67;;;9.20;99.90;;;;;;5001261;28;20050;-60
2024/01/01 06:34:24;;;;;;;15.85;2.88;;;9.20;99.90;;;;;;5007896;28;20026;-58
2024/01/01 06:36:49;;;;;;;34.72;3.40;;;9.20;99.90;;;;;;5009173;28;20023;-59
2024/01/01 06:39:15;;;;;;;31.02;2.92;;;9.20;99.90;;;;;;5009514;28;20029;-61
2024/01/01 06:41:41;;;;;;;30.67;3.58;;;9.20;99.90;;;;;;5003081;28;20429;-58
2024/01/01 06:44:07;;;;;;;30.25;3.08;;;9.10;99.90;;;;;;5007252;28;20048;-57
2024/01/01 06:46:32;;;;;;;23.67;2.80;;;9.10;99.90;;;;;;4989141;28;20416;-59
2024/01/01 06:48:58;;;;;;;20.38;3.42;;;8.90;99.90;;;;;;5008884;28;20022;-60
2024/01/01 06:51:23;;;;;;;23.65;3.47;;;8.90;99.90;;;;;;4999057;28;20073;-59
2024/01/01 06:53:49;;;;;;;21.05;3.00;;;8.70;99.90;;;;;;5005000;28;20071;-60
2024/01/01 06:56:14;;;;;;;28.10;3.00;;;8.60;99.90;;;;;;5006633;28;20048;-60
2024/01/01 06:58:41;;;;;;;25.13;3.05;;;8.60;99.90;;;;;;5004860;28;20056;-58
2024/01/01 07:01:06;;;;;;;24.42;3.00;;;8.60;99.90;;;;;;5003036;28;20026;-56
2024/01/01 07:03:32;;;;;;;26.83;2.63;;;8.60;99.90;;;;;;5004646;28;20033;-59
2024/01/01 07:05:57;;;;;;;20.67;2.70;;;8.50;99.90;;;;;;5011915;28;20037;-58
2024/01/01 07:08:23;;;;;;;18.60;3.65;;;8.50;99.90;;;;;;5008432;28;20831;-60
2024/01/01 07:10:49;;;;;;;19.80;2.63;;;8.50;99.90;;;;;;4999818;28;20026;-58
2024/01/01 07:13:14;;;;;;;25.42;3.10;;;8.50;99.90;;;;;;5007931;28;20472;-60
2024/01/01 07:15:40;;;;;;;23.98;3.80;;;8.60;99.90;;;;;;5008103;28;20042;-59
2024/01/01 07:18:07;;;;;;;19.23;2.05;;;8.60;99.90;;;;;;5005103;28;20097;-62
2024/01/01 07:20:32;;;;;;;17.83;2.42;;;8.70;99.90;;;;;;5000241;28;20469;-58
2024/01/01 07:22:58;;;;;;;25.08;3.00;;;8.70;99.90;;;;;;5006484;28;20029;-58
2024/01/01 07:25:24;;;;;;;26.38;3.50;;;8.70;99.90;;;;;;5004532;28;20519;-58
2024/01/01 07:27:50;;;;;;;20.05;2.95;;;8.80;99.90;;;;;;5009246;28;20033;-57
2024/01/01 07:30:16;;;;;;;19.83;3.63;;;8.80;99.90;;;;;;5010407;28;20370;-59
2024/01/01 07:32:41;;;;;;;20.05;2.42;;;8.80;99.90;;;;;;5009524;28;20088;-59
2024/01/01 07:35:08;;;;;;;28.17;2.40;;;8.80;99.90;;;;;;5007878;28;20030;-59
2024/01/01 07:37:34;;;;;;;10.65;2.50;;;8.80;99.90;;;;;;5004003;28;20500;-58
2024/01/01 07:40:00;;;;;;;20.67;2.20;;;8.80;99.90;;;;;;5007733;28;20037;-59
2024/01/01 07:42:26;;;;;;;21.00;2.35;;;8.80;99.90;;;;;;5003254;28;20407;-60
2024/01/01 07:44:52;;;;;;;18.73;2.63;;;8.80;99.90;;;;;;5002269;28;20045;-59
2024/01/01 07:47:19;;;;;;;13.05;2.42;;;8.80;99.90;;;;;;5010898;28;20480;-57
2024/01/01 07:49:45;;;;;;;20.05;2.40;;;8.70;99.90;;;;;;5010108;28;20049;-58
2024/01/01 07:52:11;;;;;;;15.93;3.25;;;8.80;99.90;;;;;;5005238;28;20026;-58
2024/01/01 07:54:39;;;;;;;15.00;2.75;;;8.80;99.90;;;;;;5010278;28;20484;-58
2024/01/01 07:57:06;;;;;;;20.42;3.03;;;8.80;99.90;;;;;;5005567;28;20069;-60
2024/01/01 07:59:32;;;;;;;18.75;2.78;;;8.80;99.90;;;;;;5008339;28;20021;-59
2024/01/01 08:01:57;;;;;;;13.25;2.15;;;8.70;99.90;;;;;;5003076;28;20023;-57
2024/01/01 08:04:23;;;;;;;16.30;1.75;;;8.60;99.90;;;;;;5001913;28;20535;-55
2024/01/01 08:06:49;;;;;;;15.15;2.13;;;8.60;99.90;;;;;;5001700;28;20116;-58
2024/01/01 08:09:14;;;;;;;14.57;1.75;;;8.60;99.90;;;;;;5003829;28;20068;-59
2024/01/01 08:11:40;;;;;;;7.63;1.42;;;8.60;99.90;;;;;;5005271;28;20456;-59
2024/01/01 08:14:05;;;;;;;14.45;1.20;;;8.60;99.90;;;;;;5008707;28;20056;-59
2024/01/01 08:16:33;;;;;;;9.48;1.20;;;8.50;99.90;;;;;;5003706;28;20037;-58
2024/01/01 08:18:59;;;;;;;11.25;0.98;;;8.50;99.90;;;;;;5008462;28;20113;-59
2024/01/01 08:21:25;;;;;;;5.32;0.80;;;8.40;99.90;;;;;;5003718;28;20596;-58
2024/01/01 08:23:50;;;;;;;5.93;1.35;;;8.40;99.90;;;;;;5005018;28;20038;-58
2024/01/01 08:26:16;;;;;;;4.43;0.77;;;8.40;99.90;;;;;;4999328;28;20037;-58
2024/01/01 08:28:42;;;;;;;6.68;1.10;;;8.40;99.90;;;;;;5006567;28;20040;-59
2024/01/01 08:31:07;;;;;;;3.55;0.60;;;8.50;99.90;;;;;;5006003;28;20022;-60
2024/01/01 08:33:33;;;;;;;5.32;1.00;;;8.50;99.90;;;;;;5000352;28;20030;-56
2024/01/01 08:35:58;;;;;;;3.08;0.60;;;8.50;99.90;;;;;;5009733;28;20484;-58
2024/01/01 08:38:24;;;;;;;6.65;0.80;;;8.50;99.90;;;;;;5009492;28;20036;-57
2024/01/01 08:40:52;;;;;;;3.08;1.00;;;8.40;99.90;;;;;;4999749;28;20100;-62
2024/01/01 08:43:17;;;;;;;2.92;0.73;;;8.50;99.90;;;;;;5005130;28;20022;-58
2024/01/01 08:45:43;;;;;;;3.45;0.60;;;8.40;99.90;;;;;;5001055;28;20038;-58
2024/01/01 08:48:08;;;;;;;4.53;1.05;;;8.40;99.90;;;;;;5006684;28;20025;-60
2024/01/01 08:50:34;;;;;;;3.70;0.90;;;8.50;99.90;;;;;;5008475;28;20426;-55
2024/01/01 08:52:59;;;;;;;5.50;0.70;;;8.60;99.90;;;;;;5007170;28;20041;-58
2024/01/01 08:55:25;;;;;;;6.22;0.98;;;8.60;99.90;;;;;;5009328;28;20033;-57
2024/01/01 08:57:51;;;;;;;4.78;0.90;;;8.60;99.90;;;;;;5005641;28;20108;-55
2024/01/01 09:00:17;;;;;;;4.28;0.60;;;8.60;99.90;;;;;;5006715;28;20116;-55
2024/01/01 09:02:43;;;;;;;3.63;0.77;;;8.50;99.90;;;;;;5008010;28;20411;-54
2024/01/01 09:05:08;;;;;;;3.80;1.25;;;8.50;99.90;;;;;;5008468;28;20026;-55
2024/01/01 09:07:35;;;;;;;3.30;1.00;;;8.50;99.90;;;;;;5000726;28;20034;-56
2024/01/01 09:10:01;;;;;;;4.95;0.82;;;8.50;99.90;;;;;;5003848;28;20053;-56
2024/01/01 09:12:30;;;;;;;2.83;0.75;;;8.50;99.90;;;;;;5008973;28;20416;-56
2024/01/01 09:14:56;;;;;;;4.10;1.00;;;8.50;99.90;;;;;;5007595;28;20065;-60
2024/01/01 09:17:22;;;;;;;3.38;0.70;;;8.60;99.90;;;;;;5009110;28;20436;-58
2024/01/01 09:19:48;;;;;;;3.13;0.70;;;8.60;99.90;;;;;;5005164;28;20145;-58
2024/01/01 09:22:14;;;;;;;4.43;0.65;;;8.60;99.90;;;;;;5009927;28;20087;-58
2024/01/01 09:24:42;;;;;;;1.63;0.70;;;8.50;99.90;;;;;;5007824;28;20037;-56
2024/01/01 09:27:07;;;;;;;1.38;0.60;;;8.60;99.90;;;;;;5007924;28;20057;-56
2024/01/01 09:29:33;;;;;;;4.43;0.80;;;8.60;99.90;;;;;;5009355;28;20060;-57
2024/01/01 09:31:58;;;;;;;1.88;0.50;;;8.60;99.90;;;;;;5008510;28;20025;-57
2024/01/01 09:34:24;;;;;;;3.33;0.73;;;8.60;99.90;;;;;;5009595;28;20025;-57
2024/01/01 09:36:49;;;;;;;3.58;0.70;;;8.60;99.90;;;;;;5004311;28;20041;-59
2024/01/01 09:39:15;;;;;;;2.10;0.95;;;8.60;99.90;;;;;;5005193;28;20496;-60
2024/01/01 09:41:40;;;;;;;6.32;0.65;;;8.50;99.90;;;;;;5009366;28;20030;-56
2024/01/01 09:44:06;;;;;;;2.80;0.52;;;8.50;99.90;;;;;;5008364;28;20037;-58
2024/01/01 09:46:33;;;;;;;2.85;0.70;;;8.50;99.90;;;;;;5007981;28;20033;-55
2024/01/01 09:49:04;;;;;;;4.68;0.82;;;8.50;99.90;;;;;;5007164;28;20364;-55
2024/01/01 09:51:30;;;;;;;2.67;0.70;;;8.60;99.90;;;;;;5007515;28;20100;-57
2024/01/01 09:53:56;;;;;;;4.88;0.60;;;8.60;99.90;;;;;;5008969;28;20540;-58
2024/01/01 09:56:21;;;;;;;3.42;0.98;;;8.60;99.90;;;;;;5010953;28;20159;-58
2024/01/01 09:58:47;;;;;;;4.15;0.90;;;8.70;99.90;;;;;;5007188;28;20057;-56
2024/01/01 10:01:19;;;;;;;4.10;0.90;;;8.70;99.90;;;;;;5005571;28;20022;-58
2024/01/01 10:04:07;;;;;;;6.78;0.88;;;8.80;99.90;;;;;;5009855;28;20048;-58
2024/01/01 10:06:34;;;;;;;6.30;0.95;;;8.80;99.90;;;;;;5009625;28;20034;-56
2024/01/01 10:09:10;;;;;;;4.47;1.08;;;8.90;99.90;;;;;;5010366;28;20034;-57
2024/01/01 10:11:41;;;;;;;9.18;0.88;;;8.90;99.90;;;;;;5008079;28;20022;-57
2024/01/01 10:14:07;;;;;;;5.30;0.73;;;9.00;99.90;;;;;;5006361;28;20014;-58
2024/01/01 10:16:33;;;;;;;5.63;1.15;;;9.00;99.90;;;;;;5011194;28;20048;-58
2024/01/01 10:19:01;;;;;;;5.70;1.27;;;9.00;99.90;;;;;;5006949;28;20404;-58
2024/01/01 10:21:35;;;;;;;4.78;1.00;;;9.10;99.90;;;;;;5009256;28;20096;-56
2024/01/01 10:24:13;;;;;;;6.60;1.38;;;9.00;99.90;;;;;;5009112;28;20504;-55
2024/01/01 10:26:45;;;;;;;7.03;1.23;;;9.00;99.90;;;;;;5005841;28;20030;-55
2024/01/01 10:29:13;;;;;;;5.50;1.75;;;9.00;99.90;;;;;;5008378;28;20078;-60
2024/01/01 10:31:51;;;;;;;9.13;1.13;;;9.00;99.90;;;;;;5008036;28;20057;-58
2024/01/01 10:34:18;;;;;;;16.23;1.30;;;9.10;99.90;;;;;;5005968;28;20033;-59
2024/01/01 10:36:44;;;;;;;7.50;1.40;;;9.00;99.90;;;;;;5010348;28;20026;-58
2024/01/01 10:39:10;;;;;;;5.35;1.25;;;9.00;99.90;;;;;;5010039;28;20109;-56
2024/01/01 10:41:37;;;;;;;8.73;1.48;;;9.10;99.90;;;;;;5006183;28;20741;-55
2024/01/01 10:44:03;;;;;;;7.40;1.20;;;9.10;99.90;;;;;;5010061;28;20039;-57
2024/01/01 10:46:34;;;;;;;7.85;1.55;;;9.10;99.90;;;;;;5008063;28;20033;-59
2024/01/01 10:49:02;;;;;;;13.68;1.48;;;9.10;99.90;;;;;;4994344;28;20022;-55
2024/01/01 10:51:33;;;;;;;12.27;1.55;;;9.10;99.90;;;;;;5009891;28;20118;-57
2024/01/01 10:54:18;;;;;;;10.85;2.22;;;9.10;99.90;;;;;;5001936;28;20022;-59
2024/01/01 10:57:05;;;;;;;7.28;1.10;;;9.10;99.90;;;;;;5007744;28;20088;-58
2024/01/01 10:59:42;;;;;;;9.00;1.20;;;9.10;99.90;;;;;;5005943;28;20029;-58
2024/01/01 11:02:09;;;;;;;8.80;1.50;;;9.10;99.90;;;;;;5002523;28;20088;-59
2024/01/01 11:04:34;;;;;;;4.45;1.15;;;9.10;99.90;;;;;;5006844;28;20033;-56
2024/01/01 11:07:02;;;;;;;8.98;1.42;;;9.30;99.90;;;;;;5007286;28;20042;-57
2024/01/01 11:09:27;;;;;;;10.40;2.03;;;9.30;99.90;;;;;;5007503;28;20025;-59
2024/01/01 11:11:55;;;;;;;10.30;1.42;;;9.40;99.90;;;;;;5003359;28;20053;-58
2024/01/01 11:14:34;;;;;;;14.75;1.45;;;9.30;99.90;;;;;;4998819;28;20385;-57
2024/01/01 11:17:06;;;;;;;12.13;1.58;;;9.30;99.90;;;;;;4999726;28;20025;-54
2024/01/01 11:19:36;;;;;;;6.20;1.10;;;9.30;99.90;;;;;;5004135;28;20545;-56
2024/01/01 11:22:20;;;;;;;5.78;1.17;;;9.30;99.90;;;;;;5001449;28;20032;-56
2024/01/01 11:24:50;;;;;;;13.70;1.45;;;9.40;99.90;;;;;;5001914;28;20053;-56
2024/01/01 11:27:25;;;;;;;10.18;1.33;;;9.40;99.90;;;;;;4997749;28;20030;-58
2024/01/01 11:29:51;;;;;;;6.30;1.40;;;9.50;99.90;;;;;;5001942;28;20507;-58
2024/01/01 11:32:18;;;;;;;4.30;1.00;;;9.50;99.90;;;;;;5004094;28;20026;-57
2024/01/01 11:34:43;;;;;;;12.48;1.33;;;9.50;99.90;;;;;;5003403;28;20026;-58
2024/01/01 11:37:09;;;;;;;5.10;1.10;;;9.50;99.90;;;;;;5003548;28;20026;-59
2024/01/01 11:39:35;;;;;;;7.10;1.52;;;9.50;99.90;;;;;;5006657;28;20032;-59
2024/01/01 11:42:01;;;;;;;9.63;1.30;;;9.40;99.90;;;;;;5004169;28;20052;-56
2024/01/01 11:44:26;;;;;;;8.07;1.13;;;9.50;99.90;;;;;;5007722;28;20065;-53
2024/01/01 11:46:54;;;;;;;7.80;1.20;;;9.40;99.90;;;;;;5001256;28;20022;-59
2024/01/01 11:49:20;;;;;;;10.55;1.77;;;9.50;99.90;;;;;;5005099;28;20393;-60
2024/01/01 11:52:00;;;;;;;10.45;1.98;;;9.50;99.90;;;;;;5003300;28;20026;-57
2024/01/01 11:54:26;;;;;;;10.60;1.52;;;9.50;99.90;;;;;;5002192;28;20030;-57
2024/01/01 11:56:54;;;;;;;13.75;1.83;;;9.50;99.90;;;;;;5008651;28;20057;-54
2024/01/01 11:59:22;;;;;;;11.20;1.80;;;9.40;99.90;;;;;;4980588;28;20036;-55
2024/01/01 12:01:48;;;;;;;11.80;1.90;;;9.40;99.90;;;;;;4998866;28;20025;-59
2024/01/01 12:04:14;;;;;;;8.07;1.50;;;9.40;99.90;;;;;;4998003;28;20381;-59
2024/01/01 12:06:40;;;;;;;8.98;1.60;;;9.40;99.90;;;;;;5001685;28;20512;-55
2024/01/01 12:09:12;;;;;;;19.65;1.90;;;9.50;99.90;;;;;;4999391;28;20033;-56
2024/01/01 12:11:42;;;;;;;14.23;1.40;;;9.40;99.90;;;;;;4999977;28;20033;-58
2024/01/01 12:14:08;;;;;;;15.75;2.05;;;9.50;99.90;;;;;;4998992;28;20022;-56
2024/01/01 12:16:35;;;;;;;14.05;1.73;;;9.50;99.90;;;;;;4996049;28;20034;-54
2024/01/01 12:19:09;;;;;;;11.75;2.00;;;9.50;99.90;;;;;;4998070;28;20388;-58
2024/01/01 12:21:42;;;;;;;10.10;1.88;;;9.60;99.90;;;;;;4997094;28;20042;-58
2024/01/01 12:24:12;;;;;;;14.98;1.95;;;9.50;99.90;;;;;;4997923;28;20037;-56
2024/01/01 12:26:38;;;;;;;18.38;1.92;;;9.50;99.90;;;;;;4998873;28;20447;-57
2024/01/01 12:29:21;;;;;;;12.48;3.28;;;9.50;99.90;;;;;;4998435;28;20022;-58
2024/01/01 12:31:50;;;;;;;9.93;2.30;;;9.60;99.90;;;;;;4994041;28;20021;-56
2024/01/01 12:34:17;;;;;;;17.45;3.47;;;10.10;99.90;;;;;;4995610;28;20025;-58
2024/01/01 12:36:45;;;;;;;17.25;2.30;;;9.90;99.90;;;;;;4998002;28;20045;-56
2024/01/01 12:39:11;;;;;;;32.05;4.10;;;9.90;99.90;;;;;;4998284;28;20045;-57
2024/01/01 12:41:38;;;;;;;18.80;3.30;;;10.00;99.90;;;;;;4999949;28;20034;-58
2024/01/01 12:44:04;;;;;;;20.90;2.00;;;10.00;99.90;;;;;;4998186;28;20109;-57
2024/01/01 12:46:30;;;;;;;18.10;2.78;;;10.10;99.90;;;;;;4999835;28;20109;-57